Alyeska Resort
Hourly Weather - Base Weather Site
ALY_BASE_HR 6/24/2016
CLICK TO VIEW GRAPH!!

        DATE  TIME   Air  BATT   H2o   H2o   Rel
                    Temp  Volt  Inch Since  Hum%
                      F   AVG   1HR  0600   AVG

   6/24/2016 15:00    63 13.49  0.00  0.07    56
   6/24/2016 14:00    62 13.52  0.00  0.07    58
   6/24/2016 13:00    59 13.56  0.00  0.07    78
   6/24/2016 12:00    58 13.59  0.01  0.07    82
   6/24/2016 11:00    56 13.61  0.00  0.06    89
   6/24/2016 10:00    55 13.63  0.02  0.06    91
   6/24/2016 09:00    54 13.63  0.04  0.04    90
   6/24/2016 08:00    54 13.64  0.00  0.00    90
   6/24/2016 07:00    53 13.64  0.00  0.00    91
   6/24/2016 06:00    53 13.63  0.01  0.03    88
   6/24/2016 05:00    54 13.62  0.00  0.02    87
   6/24/2016 04:00    54 13.62  0.00  0.02    84
   6/24/2016 03:00    54 13.61  0.00  0.02    84
   6/24/2016 02:00    55 13.60  0.00  0.02    82
   6/24/2016 01:00    55 13.59  0.00  0.02    83
   6/23/2016 24:00    56 13.58  0.00  0.02    84
   6/23/2016 23:00    56 13.56  0.00  0.02    82
   6/23/2016 22:00    58 13.53  0.00  0.02    80
   6/23/2016 21:00    59 13.51  0.00  0.02    79
   6/23/2016 20:00    60 13.50  0.00  0.02    78
   6/23/2016 19:00    60 13.50  0.00  0.02    80
   6/23/2016 18:00    60 13.46  0.02  0.02    83
   6/23/2016 17:00    64 13.38  0.00  0.00    64
   6/23/2016 16:00    67 13.34  0.00  0.00    55


CLICK TO VIEW GRAPH!!